createdAt,value
2017-05-20T00:00:31.423Z,25.00
2017-05-20T00:02:59.747Z,27.34
2017-05-20T00:05:28.165Z,29.58
2017-05-20T00:07:56.479Z,27.30
2017-05-20T00:10:24.824Z,28.40
2017-05-20T00:12:53.209Z,24.94
2017-05-20T00:15:21.536Z,25.00
2017-05-20T00:17:49.861Z,27.44
2017-05-20T00:20:18.239Z,27.94
2017-05-20T00:22:46.619Z,23.14
2017-05-20T00:25:14.999Z,23.40
2017-05-20T00:27:43.375Z,20.92
2017-05-20T00:30:11.762Z,20.68
2017-05-20T00:32:40.091Z,21.96
2017-05-20T00:35:08.407Z,22.42
2017-05-20T00:37:36.811Z,22.58
2017-05-20T00:40:05.126Z,19.22
2017-05-20T00:42:33.462Z,19.62
2017-05-20T00:45:01.783Z,23.60
2017-05-20T00:47:30.118Z,21.30
2017-05-20T00:49:58.439Z,19.28
2017-05-20T00:52:26.770Z,19.92
2017-05-20T00:54:55.086Z,18.82
2017-05-20T00:57:23.406Z,20.70
2017-05-20T00:59:51.727Z,20.74
2017-05-20T01:02:20.087Z,17.78
2017-05-20T01:04:48.460Z,18.34
2017-05-20T01:07:16.793Z,20.08
2017-05-20T01:09:45.195Z,22.02
2017-05-20T01:12:13.518Z,21.18
2017-05-20T01:14:41.891Z,17.52
2017-05-20T01:17:10.262Z,19.28
2017-05-20T01:19:38.595Z,22.46
2017-05-20T01:22:06.913Z,21.66
2017-05-20T01:24:35.239Z,25.98
2017-05-20T01:27:03.587Z,20.68
2017-05-20T01:29:31.909Z,23.50
2017-05-20T01:32:00.239Z,22.84
2017-05-20T01:34:28.620Z,25.12
2017-05-20T01:36:56.942Z,24.32
2017-05-20T01:39:25.256Z,24.28
2017-05-20T01:41:53.574Z,24.30
2017-05-20T01:44:21.940Z,25.60
2017-05-20T01:46:50.303Z,29.00
2017-05-20T01:49:18.683Z,25.38
2017-05-20T01:51:47.004Z,30.22
2017-05-20T01:54:15.336Z,31.80
2017-05-20T01:56:43.727Z,33.06
2017-05-20T01:59:12.107Z,34.76
2017-05-20T02:01:40.450Z,32.26
2017-05-20T02:04:08.869Z,42.22
2017-05-20T02:06:37.221Z,37.90
2017-05-20T02:09:05.620Z,35.72
2017-05-20T02:11:33.949Z,34.12
2017-05-20T02:14:02.291Z,35.92
2017-05-20T02:16:30.749Z,36.52
2017-05-20T02:18:59.065Z,39.62
2017-05-20T02:21:27.383Z,40.28
2017-05-20T02:23:55.720Z,41.82
2017-05-20T02:26:24.038Z,40.86
2017-05-20T02:28:52.378Z,39.88
2017-05-20T02:31:20.706Z,43.22
2017-05-20T02:33:49.045Z,41.16
2017-05-20T02:36:17.386Z,40.54
2017-05-20T02:38:45.767Z,43.40
2017-05-20T02:41:14.156Z,38.80
2017-05-20T02:43:42.538Z,38.08
2017-05-20T02:46:10.887Z,41.82
2017-05-20T02:48:39.202Z,39.66
2017-05-20T02:51:07.574Z,48.32
2017-05-20T02:53:35.947Z,38.60
2017-05-20T02:56:04.331Z,37.30
2017-05-20T02:58:32.666Z,40.46
2017-05-20T03:01:01.103Z,43.20
2017-05-20T03:03:29.455Z,39.08
2017-05-20T03:05:57.767Z,40.28
2017-05-20T03:08:26.115Z,40.06
2017-05-20T03:10:54.513Z,41.16
2017-05-20T03:13:22.879Z,40.20
2017-05-20T03:15:51.202Z,41.48
2017-05-20T03:18:19.532Z,41.72
2017-05-20T03:20:47.854Z,39.54
2017-05-20T03:23:16.207Z,38.10
2017-05-20T03:25:44.555Z,41.88
2017-05-20T03:28:12.971Z,36.36
2017-05-20T03:30:41.339Z,39.54
2017-05-20T03:33:09.651Z,36.32
2017-05-20T03:35:38.003Z,38.62
2017-05-20T03:38:06.327Z,42.26
2017-05-20T03:40:34.667Z,39.36
2017-05-20T03:43:03.130Z,37.10
2017-05-20T03:45:31.524Z,38.88
2017-05-20T03:47:59.866Z,37.44
2017-05-20T03:50:28.291Z,39.44
2017-05-20T03:52:56.671Z,37.16
2017-05-20T03:55:24.991Z,32.50
2017-05-20T03:57:53.331Z,36.24
2017-05-20T04:00:21.644Z,34.60
2017-05-20T04:02:49.961Z,36.94
2017-05-20T04:05:18.311Z,35.06
2017-05-20T04:07:46.731Z,37.94
2017-05-20T04:10:15.110Z,37.48
2017-05-20T04:12:43.421Z,40.60
2017-05-20T04:15:11.766Z,36.98
2017-05-20T04:17:40.160Z,42.66
2017-05-20T04:20:08.519Z,32.76
2017-05-20T04:22:36.842Z,37.24
2017-05-20T04:25:05.168Z,40.18
2017-05-20T04:27:33.481Z,37.70
2017-05-20T04:30:01.799Z,42.64
2017-05-20T04:32:30.154Z,40.58
2017-05-20T04:34:58.471Z,42.00
2017-05-20T04:37:26.806Z,47.32
2017-05-20T04:39:55.127Z,41.40
2017-05-20T04:42:23.541Z,43.34
2017-05-20T04:45:05.143Z,43.42
2017-05-20T04:47:33.492Z,40.08
2017-05-20T04:50:01.891Z,45.06
2017-05-20T04:52:30.282Z,45.18
2017-05-20T04:54:58.670Z,41.76
2017-05-20T04:57:27.002Z,41.00
2017-05-20T04:59:55.346Z,42.54
2017-05-20T05:02:23.692Z,44.08
2017-05-20T05:04:52.035Z,42.62
2017-05-20T05:07:20.462Z,41.24
2017-05-20T05:09:48.812Z,45.22
2017-05-20T05:12:17.126Z,43.74
2017-05-20T05:14:45.495Z,40.56
2017-05-20T05:17:13.831Z,42.30
2017-05-20T05:19:42.143Z,38.14
2017-05-20T05:22:10.537Z,37.78
2017-05-20T05:24:38.856Z,39.98
2017-05-20T05:27:07.191Z,36.94
2017-05-20T05:29:35.567Z,37.10
2017-05-20T05:32:03.910Z,30.82
2017-05-20T05:34:32.227Z,35.24
2017-05-20T05:37:00.540Z,41.20
2017-05-20T05:39:29.387Z,36.16
2017-05-20T05:41:57.712Z,29.64
2017-05-20T05:44:26.149Z,66.72
2017-05-20T05:46:54.526Z,67.06
2017-05-20T05:49:22.870Z,32.14
2017-05-20T05:51:51.186Z,31.74
2017-05-20T05:54:19.538Z,40.70
2017-05-20T05:56:47.947Z,49.62
2017-05-20T05:59:16.271Z,29.32
2017-05-20T06:01:44.613Z,28.10
2017-05-20T06:04:12.995Z,25.88
2017-05-20T06:06:41.346Z,23.56
2017-05-20T06:09:09.674Z,40.58
2017-05-20T06:11:38.004Z,25.42
2017-05-20T06:14:06.328Z,21.24
2017-05-20T06:16:34.671Z,26.08
2017-05-20T06:19:03.067Z,24.28
2017-05-20T06:21:31.451Z,21.26
2017-05-20T06:23:59.823Z,20.76
2017-05-20T06:26:28.203Z,24.18
2017-05-20T06:28:56.562Z,19.68
2017-05-20T06:31:24.963Z,20.08
2017-05-20T06:33:53.283Z,19.82
2017-05-20T06:36:21.631Z,23.14
2017-05-20T06:38:49.982Z,18.46
2017-05-20T06:41:18.382Z,17.42
2017-05-20T06:43:46.706Z,21.94
2017-05-20T06:46:15.021Z,20.24
2017-05-20T06:48:43.344Z,19.92
2017-05-20T06:51:11.687Z,19.46
2017-05-20T06:53:40.078Z,23.46
2017-05-20T06:56:08.539Z,16.62
2017-05-20T06:58:36.943Z,19.52
2017-05-20T07:01:05.329Z,23.32
2017-05-20T07:03:33.705Z,19.80
2017-05-20T07:06:02.023Z,22.24
2017-05-20T07:08:30.343Z,18.50
2017-05-20T07:10:58.673Z,17.26
2017-05-20T07:13:27.122Z,20.40
2017-05-20T07:16:15.382Z,22.48
2017-05-20T07:18:43.736Z,19.14
2017-05-20T07:21:12.055Z,17.30
2017-05-20T07:23:40.376Z,17.04
2017-05-20T07:26:08.779Z,16.16
2017-05-20T07:28:37.155Z,17.26
2017-05-20T07:31:05.466Z,16.56
2017-05-20T07:33:33.829Z,15.44
2017-05-20T07:36:02.198Z,15.34
2017-05-20T07:38:30.530Z,17.24
2017-05-20T07:40:58.882Z,14.38
2017-05-20T07:43:27.221Z,15.80
2017-05-20T07:45:55.546Z,15.52
2017-05-20T07:48:23.118Z,14.84
2017-05-20T07:50:51.435Z,14.94
2017-05-20T07:53:19.770Z,14.68
2017-05-20T07:55:48.110Z,14.64
2017-05-20T07:58:16.491Z,15.56
2017-05-20T08:00:44.805Z,13.38
2017-05-20T08:03:13.167Z,13.94
2017-05-20T08:05:41.482Z,11.62
2017-05-20T08:08:09.907Z,11.40
2017-05-20T08:10:38.231Z,12.88
2017-05-20T08:13:06.546Z,12.70
2017-05-20T08:15:34.890Z,11.30
2017-05-20T08:18:03.203Z,13.66
2017-05-20T08:20:31.539Z,10.46
2017-05-20T08:22:59.865Z,10.12
2017-05-20T08:25:28.267Z,9.62
2017-05-20T08:27:56.586Z,13.74
2017-05-20T08:30:24.896Z,12.20
2017-05-20T08:32:53.208Z,18.70
2017-05-20T08:35:21.528Z,9.58
2017-05-20T08:37:49.871Z,9.88
2017-05-20T08:40:18.235Z,15.28
2017-05-20T08:42:46.566Z,11.80
2017-05-20T08:45:14.886Z,14.64
2017-05-20T08:47:43.240Z,10.78
2017-05-20T08:50:11.654Z,9.60
2017-05-20T08:52:39.962Z,9.70
2017-05-20T08:55:08.327Z,14.70
2017-05-20T08:57:36.663Z,12.74
2017-05-20T09:00:05.019Z,10.62
2017-05-20T09:02:33.478Z,9.64
2017-05-20T09:05:01.827Z,9.62
2017-05-20T09:07:30.163Z,11.72
2017-05-20T09:09:58.690Z,7.68
2017-05-20T09:12:27.025Z,8.54
2017-05-20T09:14:55.482Z,9.56
2017-05-20T09:17:23.845Z,10.42
2017-05-20T09:19:52.186Z,9.10
2017-05-20T09:22:20.507Z,10.40
2017-05-20T09:24:48.875Z,12.30
2017-05-20T09:27:17.214Z,12.30
2017-05-20T09:29:45.533Z,9.44
2017-05-20T09:32:13.907Z,8.72
2017-05-20T09:34:42.285Z,9.48
2017-05-20T09:37:10.592Z,8.62
2017-05-20T09:39:38.943Z,194.70
2017-05-20T09:42:07.323Z,28.52
2017-05-20T09:44:35.635Z,10.28
2017-05-20T09:47:04.114Z,9.24
2017-05-20T09:49:32.423Z,10.46
2017-05-20T09:52:00.746Z,9.26
2017-05-20T09:54:29.062Z,10.82
2017-05-20T09:56:57.395Z,9.74
2017-05-20T09:59:25.788Z,9.32
2017-05-20T10:01:54.262Z,11.12
2017-05-20T10:04:22.643Z,48.12
2017-05-20T10:06:51.018Z,10.62
2017-05-20T10:09:19.337Z,26.36
2017-05-20T10:11:47.671Z,9.10
2017-05-20T10:14:15.993Z,7.90
2017-05-20T10:16:44.308Z,8.62
2017-05-20T10:19:12.638Z,7.02
2017-05-20T10:21:40.957Z,8.22
2017-05-20T10:24:09.327Z,10.02
2017-05-20T10:26:37.634Z,7.72
2017-05-20T10:29:05.956Z,8.76
2017-05-20T10:31:34.303Z,11.52
2017-05-20T10:34:02.618Z,13.94
2017-05-20T10:36:30.967Z,13.48
2017-05-20T10:38:59.306Z,7.26
2017-05-20T10:41:27.727Z,8.50
2017-05-20T10:43:56.067Z,9.84
2017-05-20T10:46:24.388Z,7.16
2017-05-20T10:48:52.732Z,7.14
2017-05-20T10:51:21.042Z,7.18
2017-05-20T10:53:49.362Z,8.82
2017-05-20T10:56:17.666Z,6.88
2017-05-20T10:58:45.970Z,7.12
2017-05-20T11:01:14.358Z,6.60
2017-05-20T11:03:42.673Z,6.54
2017-05-20T11:06:11.010Z,6.42
2017-05-20T11:08:39.324Z,7.52
2017-05-20T11:11:07.671Z,6.84
2017-05-20T11:13:35.981Z,6.30
2017-05-20T11:16:04.291Z,5.80
2017-05-20T11:18:32.605Z,6.00
2017-05-20T11:21:00.914Z,5.00
2017-05-20T11:23:29.252Z,5.64
2017-05-20T11:25:57.570Z,5.20
2017-05-20T11:28:25.908Z,5.74
2017-05-20T11:30:54.223Z,14.10
2017-05-20T11:33:22.563Z,5.84
2017-05-20T11:35:50.877Z,5.98
2017-05-20T11:38:19.240Z,4.92
2017-05-20T11:40:47.556Z,5.48
2017-05-20T11:46:09.584Z,5.24
2017-05-20T11:48:37.951Z,4.62
2017-05-20T11:51:06.298Z,5.10
2017-05-20T11:53:34.715Z,4.56
2017-05-20T11:56:03.050Z,6.94
2017-05-20T11:58:31.363Z,4.38
2017-05-20T12:00:59.745Z,4.14
2017-05-20T12:03:28.080Z,3.96
2017-05-20T12:05:56.393Z,6.24
2017-05-20T12:08:24.776Z,4.00
2017-05-20T12:10:53.086Z,3.48
2017-05-20T12:13:21.431Z,3.64
2017-05-20T12:15:49.751Z,5.14
2017-05-20T12:18:18.085Z,3.28
2017-05-20T12:20:46.391Z,6.16
2017-05-20T12:23:14.738Z,4.24
2017-05-20T12:25:43.051Z,4.30
2017-05-20T12:28:11.357Z,5.14
2017-05-20T12:30:39.669Z,6.60
2017-05-20T12:33:07.979Z,7.20
2017-05-20T12:35:36.288Z,4.90
2017-05-20T12:38:04.623Z,10.26
2017-05-20T12:40:32.934Z,5.68
2017-05-20T12:43:01.246Z,5.70
2017-05-20T12:45:29.550Z,5.50
2017-05-20T12:47:57.932Z,5.24
2017-05-20T12:50:26.318Z,4.62
2017-05-20T12:52:54.627Z,6.14
2017-05-20T12:55:22.964Z,4.34
2017-05-20T12:57:51.280Z,3.80
2017-05-20T13:00:19.598Z,4.62
2017-05-20T13:02:48.018Z,3.80
2017-05-20T13:05:16.395Z,4.90
2017-05-20T13:07:44.778Z,5.58
2017-05-20T13:10:13.150Z,5.02
2017-05-20T13:12:41.462Z,4.62
2017-05-20T13:15:09.778Z,5.06
2017-05-20T13:17:38.196Z,4.72
2017-05-20T13:20:06.510Z,4.22
2017-05-20T13:22:34.954Z,4.22
2017-05-20T13:25:03.339Z,4.32
2017-05-20T13:27:31.714Z,5.40
2017-05-20T13:30:00.026Z,3.96
2017-05-20T13:32:28.351Z,5.62
2017-05-20T13:34:56.662Z,4.56
2017-05-20T13:37:25.022Z,4.78
2017-05-20T13:39:53.399Z,3.20
2017-05-20T13:42:21.710Z,3.82
2017-05-20T13:44:50.188Z,3.76
2017-05-20T13:47:18.504Z,4.56
2017-05-20T13:49:46.916Z,3.82
2017-05-20T13:52:15.299Z,3.16
2017-05-20T13:54:43.603Z,6.20
2017-05-20T13:57:11.908Z,3.74
2017-05-20T13:59:40.212Z,3.44
2017-05-20T14:02:08.530Z,2.80
2017-05-20T14:04:36.834Z,4.56
2017-05-20T14:07:05.174Z,3.30
2017-05-20T14:09:33.560Z,5.82
2017-05-20T14:12:01.942Z,3.38
2017-05-20T14:14:30.318Z,3.52
2017-05-20T14:16:58.632Z,2.90
2017-05-20T14:19:26.942Z,3.66
2017-05-20T14:21:55.251Z,5.00
2017-05-20T14:24:23.559Z,3.68
2017-05-20T14:26:51.871Z,5.78
2017-05-20T14:29:20.199Z,6.68
2017-05-20T14:31:48.526Z,5.16
2017-05-20T14:34:16.859Z,2.94
2017-05-20T14:36:45.170Z,2.84
2017-05-20T14:39:13.489Z,5.62
2017-05-20T14:41:41.811Z,3.36
2017-05-20T14:44:10.127Z,2.98
2017-05-20T14:46:38.440Z,3.78
2017-05-20T14:49:06.752Z,3.16
2017-05-20T14:51:35.085Z,2.70
2017-05-20T14:54:03.476Z,68.14
2017-05-20T14:56:31.829Z,5.20
2017-05-20T14:59:00.138Z,11.06
2017-05-20T15:01:28.442Z,2.48
2017-05-20T15:03:56.758Z,3.12
2017-05-20T15:06:25.066Z,2.14
2017-05-20T15:08:53.392Z,3.88
2017-05-20T15:11:21.722Z,4.30
2017-05-20T15:13:50.096Z,2.68
2017-05-20T15:16:18.477Z,5.60
2017-05-20T15:18:46.863Z,3.82
2017-05-20T15:21:15.237Z,3.20
2017-05-20T15:23:43.613Z,3.90
2017-05-20T15:26:12.023Z,2.72
2017-05-20T15:28:40.337Z,2.44
2017-05-20T15:31:08.676Z,2.28
2017-05-20T15:33:36.989Z,4.18
2017-05-20T15:36:05.336Z,2.14
2017-05-20T15:38:33.647Z,2.10
2017-05-20T15:41:01.951Z,2.24
2017-05-20T15:43:30.255Z,2.98
2017-05-20T15:45:58.570Z,2.90
2017-05-20T15:48:26.910Z,2.84
2017-05-20T15:50:55.227Z,1.98
2017-05-20T15:53:23.560Z,2.82
2017-05-20T15:55:51.938Z,3.96
2017-05-20T15:58:20.280Z,2.40
2017-05-20T16:00:48.602Z,4.50
2017-05-20T16:03:16.915Z,2.60
2017-05-20T16:05:45.254Z,2.26
2017-05-20T16:08:13.567Z,23.04
2017-05-20T16:10:41.896Z,6.42
2017-05-20T16:13:10.217Z,14.34
2017-05-20T16:15:38.539Z,19.02
2017-05-20T16:18:06.855Z,4.72
2017-05-20T16:20:35.240Z,2.94
2017-05-20T16:23:03.546Z,2.68
2017-05-20T16:25:31.908Z,12.52
2017-05-20T16:28:00.222Z,2.42
2017-05-20T16:30:28.530Z,3.00
2017-05-20T16:32:56.839Z,3.56
2017-05-20T16:35:25.212Z,2.72
2017-05-20T16:37:53.525Z,4.10
2017-05-20T16:40:21.844Z,3.72
2017-05-20T16:42:50.236Z,3.60
2017-05-20T16:45:18.625Z,5.84
2017-05-20T16:47:46.983Z,2.70
2017-05-20T16:50:15.430Z,3.40
2017-05-20T16:52:43.767Z,4.10
2017-05-20T16:55:12.138Z,3.40
2017-05-20T16:57:40.526Z,2.90
2017-05-20T17:00:08.831Z,2.98
2017-05-20T17:02:37.139Z,5.98
2017-05-20T17:05:05.451Z,6.84
2017-05-20T17:07:33.754Z,2.70
2017-05-20T17:10:02.124Z,2.88
2017-05-20T17:12:30.500Z,2.86
2017-05-20T17:14:58.812Z,3.16
2017-05-20T17:17:27.134Z,3.04
2017-05-20T17:19:55.531Z,5.98
2017-05-20T17:22:23.915Z,6.20
2017-05-20T17:24:52.223Z,3.54
2017-05-20T17:27:20.534Z,5.18
2017-05-20T17:29:48.847Z,4.90
2017-05-20T17:32:17.198Z,4.02
2017-05-20T17:34:45.499Z,3.38
2017-05-20T17:37:13.810Z,3.96
2017-05-20T17:39:42.120Z,3.08
2017-05-20T17:42:10.427Z,3.06
2017-05-20T17:44:38.735Z,3.50
2017-05-20T17:47:07.098Z,3.20
2017-05-20T17:49:35.471Z,3.92
2017-05-20T17:52:03.787Z,6.14
2017-05-20T17:54:32.145Z,7.50
2017-05-20T17:57:00.465Z,3.38
2017-05-20T17:59:28.815Z,8.42
2017-05-20T18:01:57.123Z,6.62
2017-05-20T18:04:25.471Z,3.42
2017-05-20T18:06:53.836Z,6.78
2017-05-20T18:09:22.164Z,5.64
2017-05-20T18:11:50.474Z,4.70
2017-05-20T18:14:18.783Z,3.98
2017-05-20T18:16:47.111Z,3.68
2017-05-20T18:19:15.456Z,4.10
2017-05-20T18:21:43.793Z,5.48
2017-05-20T18:24:12.180Z,4.10
2017-05-20T18:26:40.530Z,4.58
2017-05-20T18:29:09.405Z,7.34
2017-05-20T18:31:37.750Z,3.90
2017-05-20T18:34:06.139Z,11.74
2017-05-20T18:36:34.471Z,4.32
2017-05-20T18:39:02.883Z,3.98
2017-05-20T18:41:31.254Z,3.90
2017-05-20T18:43:59.566Z,4.22
2017-05-20T18:46:27.915Z,4.24
2017-05-20T18:48:56.297Z,8.96
2017-05-20T18:51:24.668Z,4.52
2017-05-20T18:53:53.264Z,4.64
2017-05-20T18:56:21.739Z,4.24
2017-05-20T18:58:50.125Z,6.60
2017-05-20T19:01:18.511Z,5.00
2017-05-20T19:03:46.987Z,4.38
2017-05-20T19:06:15.402Z,4.78
2017-05-20T19:08:43.945Z,4.28
2017-05-20T19:11:12.297Z,5.70
2017-05-20T19:13:40.627Z,5.94
2017-05-20T19:16:08.938Z,4.20
2017-05-20T19:18:37.262Z,4.48
2017-05-20T19:21:05.587Z,7.44
2017-05-20T19:23:33.976Z,5.18
2017-05-20T19:26:02.303Z,9.02
2017-05-20T19:28:30.692Z,5.58
2017-05-20T19:30:59.014Z,4.70
2017-05-20T19:33:27.342Z,10.64
2017-05-20T19:35:55.658Z,7.04
2017-05-20T19:38:23.967Z,6.66
2017-05-20T19:40:52.315Z,4.80
2017-05-20T19:43:20.632Z,7.78
2017-05-20T19:45:49.031Z,6.38
2017-05-20T19:48:17.408Z,5.62
2017-05-20T19:50:45.715Z,8.92
2017-05-20T19:53:14.118Z,6.26
2017-05-20T19:55:42.430Z,5.74
2017-05-20T19:58:10.959Z,6.22
2017-05-20T20:00:39.273Z,6.04
2017-05-20T20:03:07.650Z,6.02
2017-05-20T20:05:36.115Z,6.06
2017-05-20T20:08:04.435Z,7.24
2017-05-20T20:10:32.834Z,5.92
2017-05-20T20:13:01.233Z,6.90
2017-05-20T20:15:29.600Z,6.32
2017-05-20T20:17:57.987Z,6.70
2017-05-20T20:20:26.323Z,6.80
2017-05-20T20:22:54.637Z,6.76
2017-05-20T20:25:23.016Z,6.92
2017-05-20T20:27:51.323Z,8.78
2017-05-20T20:30:19.634Z,7.22
2017-05-20T20:32:47.951Z,8.94
2017-05-20T20:35:16.323Z,7.62
2017-05-20T20:37:44.700Z,7.24
2017-05-20T20:40:13.079Z,7.58
2017-05-20T20:42:41.389Z,7.88
2017-05-20T20:45:09.743Z,7.94
2017-05-20T20:47:38.061Z,7.62
2017-05-20T20:50:06.371Z,8.78
2017-05-20T20:52:34.780Z,8.50
2017-05-20T20:55:03.103Z,8.46
2017-05-20T20:57:31.411Z,7.90
2017-05-20T20:59:59.755Z,10.48
2017-05-20T21:02:28.121Z,10.90
2017-05-20T21:04:56.579Z,11.56
2017-05-20T21:07:24.890Z,9.20
2017-05-20T21:09:53.241Z,8.42
2017-05-20T21:12:21.904Z,8.64
2017-05-20T21:14:50.294Z,8.24
2017-05-20T21:17:18.675Z,9.62
2017-05-20T21:19:46.987Z,13.44
2017-05-20T21:22:15.346Z,10.02
2017-05-20T21:24:43.722Z,10.84
2017-05-20T21:27:12.062Z,10.98
2017-05-20T21:29:40.379Z,11.48
2017-05-20T21:32:08.724Z,12.58
2017-05-20T21:34:37.034Z,14.58
2017-05-20T21:37:05.627Z,11.62
2017-05-20T21:39:34.014Z,11.94
2017-05-20T21:42:02.390Z,11.22
2017-05-20T21:44:30.710Z,11.84
2017-05-20T21:46:59.046Z,22.22
2017-05-20T21:49:27.432Z,11.64
2017-05-20T21:51:55.802Z,13.44
2017-05-20T21:54:24.156Z,14.34
2017-05-20T21:56:52.558Z,13.52
2017-05-20T21:59:20.939Z,12.88
2017-05-20T22:01:49.306Z,14.06
2017-05-20T22:04:17.703Z,11.32
2017-05-20T22:06:46.070Z,13.60
2017-05-20T22:09:14.379Z,12.52
2017-05-20T22:11:42.706Z,13.16
2017-05-20T22:14:11.116Z,12.70
2017-05-20T22:16:39.498Z,15.18
2017-05-20T22:19:07.875Z,12.36
2017-05-20T22:21:36.255Z,14.38
2017-05-20T22:24:04.638Z,14.28
2017-05-20T22:26:32.996Z,13.00
2017-05-20T22:29:01.324Z,12.68
2017-05-20T22:31:29.634Z,13.76
2017-05-20T22:33:58.056Z,12.92
2017-05-20T22:36:26.438Z,16.52
2017-05-20T22:38:54.771Z,13.44
2017-05-20T22:41:23.100Z,13.50
2017-05-20T22:43:51.480Z,16.06
2017-05-20T22:46:19.814Z,13.34
2017-05-20T22:48:48.158Z,13.68
2017-05-20T22:51:16.479Z,13.46
2017-05-20T22:53:44.888Z,16.52
2017-05-20T22:56:13.213Z,13.58
2017-05-20T22:58:41.528Z,13.12
2017-05-20T23:01:09.838Z,13.40
2017-05-20T23:03:38.212Z,13.46
2017-05-20T23:06:06.583Z,14.38
2017-05-20T23:08:34.910Z,15.74
2017-05-20T23:11:03.339Z,11.92
2017-05-20T23:13:31.667Z,13.66
2017-05-20T23:16:00.006Z,14.74
2017-05-20T23:18:28.327Z,13.40
2017-05-20T23:20:56.763Z,14.28
2017-05-20T23:23:25.144Z,15.82
2017-05-20T23:25:53.514Z,13.34
2017-05-20T23:28:21.895Z,15.40
2017-05-20T23:30:50.274Z,13.06
2017-05-20T23:33:18.614Z,15.46
2017-05-20T23:35:46.928Z,13.58
2017-05-20T23:38:15.321Z,14.20
2017-05-20T23:40:43.630Z,13.78
2017-05-20T23:43:12.079Z,13.20
2017-05-20T23:45:40.457Z,21.74
2017-05-20T23:48:08.843Z,13.80
2017-05-20T23:50:37.219Z,17.06
2017-05-20T23:53:05.558Z,14.86
2017-05-20T23:55:33.870Z,14.60
2017-05-20T23:58:02.192Z,16.32
